Time;durP1;ratioP1;P1;durP2;ratioP2;P2;SDS_P1;SDS_P2;PMS_P1;PMS_P2;Temp;Humidity;BMP_temperature;BMP_pressure;BME280_temperature;BME280_humidity;BME280_pressure;Samples;Min_cycle;Max_cycle;Signal;HPM_P1;HPM_P2
2022/03/13 00:00:45;;;;;;;27.02;14.85;;;8.80;92.90;;;;;;4976902;28;20030;-86
2022/03/13 00:03:11;;;;;;;22.55;14.15;;;8.80;92.90;;;;;;4976565;28;20113;-85
2022/03/13 00:05:41;;;;;;;21.70;13.52;;;8.80;92.80;;;;;;4976777;28;20490;-86
2022/03/13 00:08:27;;;;;;;20.25;13.27;;;8.80;92.90;;;;;;4976775;28;20054;-86
2022/03/13 00:11:16;;;;;;;20.30;13.35;;;8.80;92.80;;;;;;4994479;28;20481;-85
2022/03/13 00:13:51;;;;;;;19.70;13.45;;;8.80;92.80;;;;;;4976512;28;20375;-86
2022/03/13 00:16:18;;;;;;;22.40;13.70;;;8.80;92.80;;;;;;4976607;28;20045;-86
2022/03/13 00:18:46;;;;;;;21.40;13.65;;;8.80;93.40;;;;;;4976381;28;20113;-85
2022/03/13 00:21:14;;;;;;;20.13;13.50;;;8.80;92.90;;;;;;4994110;28;20022;-86
2022/03/13 00:23:41;;;;;;;21.90;14.13;;;8.70;92.80;;;;;;4976458;28;20042;-85
2022/03/13 00:26:07;;;;;;;22.30;13.05;;;8.70;92.80;;;;;;4976260;28;20121;-85
2022/03/13 00:28:33;;;;;;;21.05;13.95;;;8.70;92.80;;;;;;4993968;28;20442;-85
2022/03/13 00:30:58;;;;;;;18.83;13.07;;;8.70;92.80;;;;;;4993904;28;20018;-86
2022/03/13 00:33:25;;;;;;;19.70;13.18;;;8.70;92.80;;;;;;4993985;28;20030;-86
2022/03/13 00:35:51;;;;;;;21.27;14.18;;;8.70;92.80;;;;;;4976479;28;20027;-86
2022/03/13 00:38:19;;;;;;;20.95;13.65;;;8.60;92.70;;;;;;4993655;28;20122;-85
2022/03/13 00:40:51;;;;;;;18.77;12.00;;;8.60;92.70;;;;;;4993372;28;20053;-86
2022/03/13 00:43:22;;;;;;;19.45;12.70;;;8.60;92.80;;;;;;4976436;28;20026;-86
2022/03/13 00:45:47;;;;;;;22.45;12.48;;;8.60;92.70;;;;;;4994351;28;20026;-86
2022/03/13 00:48:13;;;;;;;21.08;14.07;;;8.60;92.70;;;;;;4976210;28;20022;-87
2022/03/13 00:50:39;;;;;;;20.73;13.55;;;8.60;92.70;;;;;;4976450;28;20025;-86
2022/03/13 00:53:05;;;;;;;21.00;13.40;;;8.60;92.80;;;;;;4976417;28;20038;-85
2022/03/13 00:55:32;;;;;;;18.77;12.88;;;8.50;92.70;;;;;;4976359;28;20490;-86
2022/03/13 00:57:58;;;;;;;19.33;13.07;;;8.60;92.80;;;;;;4976358;28;20034;-85
2022/03/13 01:00:23;;;;;;;18.52;13.10;;;8.60;92.80;;;;;;4993988;28;20030;-85
2022/03/13 01:02:49;;;;;;;21.75;13.45;;;8.50;92.70;;;;;;4976189;28;20143;-87
2022/03/13 01:05:27;;;;;;;22.30;13.00;;;8.50;92.80;;;;;;4993562;28;20026;-85
2022/03/13 01:07:55;;;;;;;22.48;12.95;;;8.50;92.70;;;;;;4993221;28;20602;-85
2022/03/13 01:10:21;;;;;;;22.40;12.82;;;8.50;92.70;;;;;;4975737;28;20018;-85
2022/03/13 01:12:49;;;;;;;20.45;13.38;;;8.50;92.70;;;;;;4993386;28;20434;-85
2022/03/13 01:15:15;;;;;;;18.30;12.40;;;8.50;92.70;;;;;;4993406;28;20022;-85
2022/03/13 01:17:42;;;;;;;21.63;13.18;;;8.50;92.70;;;;;;4975854;28;20402;-86
2022/03/13 01:20:19;;;;;;;19.98;13.30;;;8.50;92.70;;;;;;4975772;28;20105;-85
2022/03/13 01:22:45;;;;;;;19.23;13.20;;;8.50;92.70;;;;;;4975804;28;20035;-86
2022/03/13 01:25:11;;;;;;;20.48;12.27;;;8.50;92.70;;;;;;4976189;28;20030;-85
2022/03/13 01:27:37;;;;;;;19.00;12.50;;;8.50;92.70;;;;;;4975808;28;20029;-86
2022/03/13 01:30:03;;;;;;;17.35;12.73;;;8.50;92.70;;;;;;4976280;28;20030;-86
2022/03/13 01:32:33;;;;;;;18.30;12.63;;;8.40;92.70;;;;;;4975785;28;20030;-86
2022/03/13 01:34:59;;;;;;;18.63;12.70;;;8.40;92.70;;;;;;4975687;28;20027;-86
2022/03/13 01:37:29;;;;;;;19.45;12.20;;;8.40;92.70;;;;;;4975690;28;20037;-85
2022/03/13 01:39:56;;;;;;;16.63;12.48;;;8.40;92.70;;;;;;4976203;28;20121;-86
2022/03/13 01:42:22;;;;;;;19.08;12.88;;;8.40;92.70;;;;;;4975636;28;20049;-86
2022/03/13 01:44:48;;;;;;;22.63;13.32;;;8.50;92.80;;;;;;4975588;28;20022;-86
2022/03/13 01:47:14;;;;;;;24.17;12.70;;;8.40;92.70;;;;;;4975631;28;20022;-85
2022/03/13 01:49:39;;;;;;;18.80;12.98;;;8.40;92.70;;;;;;4975683;28;20050;-86
2022/03/13 01:52:05;;;;;;;18.63;12.15;;;8.50;98.00;;;;;;4978106;28;20074;-86
2022/03/13 01:54:31;;;;;;;20.27;13.07;;;8.40;97.80;;;;;;4996688;28;20034;-85
2022/03/13 01:56:59;;;;;;;20.13;12.38;;;8.40;93.20;;;;;;4978923;28;20018;-85
2022/03/13 01:59:29;;;;;;;20.25;12.55;;;8.40;92.80;;;;;;4978941;28;20490;-85
2022/03/13 02:01:57;;;;;;;17.13;12.02;;;8.40;94.60;;;;;;4978897;28;20091;-86
2022/03/13 02:04:25;;;;;;;20.08;12.95;;;8.40;92.70;;;;;;4978746;28;20038;-85
2022/03/13 02:06:53;;;;;;;17.42;11.88;;;8.30;92.70;;;;;;4978795;28;20026;-85
2022/03/13 02:09:19;;;;;;;16.33;11.50;;;8.20;92.70;;;;;;4978725;28;20027;-85
2022/03/13 02:11:45;;;;;;;18.58;12.70;;;8.40;93.40;;;;;;4978734;28;20026;-85
2022/03/13 02:14:11;;;;;;;18.23;13.13;;;8.30;92.90;;;;;;4978644;28;20037;-85
2022/03/13 02:16:38;;;;;;;20.20;13.07;;;8.20;92.70;;;;;;4996288;28;20030;-85
2022/03/13 02:19:06;;;;;;;20.55;13.20;;;8.20;92.70;;;;;;4978292;28;20062;-85
2022/03/13 02:21:38;;;;;;;19.92;13.20;;;8.20;92.70;;;;;;4978602;28;20621;-85
2022/03/13 02:24:10;;;;;;;20.27;12.00;;;8.20;92.70;;;;;;4995849;28;20030;-85
2022/03/13 02:26:36;;;;;;;19.50;12.55;;;8.20;92.70;;;;;;4978696;28;20030;-85
2022/03/13 02:29:03;;;;;;;18.73;12.60;;;8.20;92.70;;;;;;4978366;28;20026;-85
2022/03/13 02:31:36;;;;;;;18.90;13.02;;;8.20;92.70;;;;;;4978444;28;20105;-85
2022/03/13 02:34:02;;;;;;;18.30;12.20;;;8.20;92.70;;;;;;4978314;28;20082;-85
2022/03/13 02:36:31;;;;;;;24.52;13.43;;;8.10;92.60;;;;;;4995834;28;20038;-85
2022/03/13 02:38:58;;;;;;;20.20;13.32;;;8.10;92.70;;;;;;4978292;28;20041;-85
2022/03/13 02:41:26;;;;;;;20.08;12.40;;;8.10;92.70;;;;;;4978252;28;20045;-85
2022/03/13 02:43:55;;;;;;;19.08;12.48;;;8.10;93.10;;;;;;4978087;28;20022;-85
2022/03/13 02:46:24;;;;;;;17.67;13.00;;;8.10;92.90;;;;;;4995645;28;20014;-85
2022/03/13 02:48:51;;;;;;;19.95;13.05;;;8.10;92.70;;;;;;4978118;28;20027;-85
2022/03/13 02:51:18;;;;;;;19.25;12.82;;;8.10;92.80;;;;;;4995505;28;20046;-85
2022/03/13 02:53:44;;;;;;;21.25;12.68;;;8.10;92.90;;;;;;4977961;28;20561;-85
2022/03/13 02:56:10;;;;;;;20.45;12.77;;;8.10;92.70;;;;;;4995386;28;20094;-85
2022/03/13 02:58:36;;;;;;;18.55;12.55;;;8.00;92.60;;;;;;4995295;28;20481;-85
2022/03/13 03:01:02;;;;;;;20.25;13.80;;;8.00;92.60;;;;;;4977995;28;20069;-85
2022/03/13 03:03:28;;;;;;;16.67;12.90;;;8.00;92.60;;;;;;4994324;28;20363;-85
2022/03/13 03:05:54;;;;;;;19.25;12.65;;;8.00;92.60;;;;;;4977749;28;20050;-85
2022/03/13 03:08:21;;;;;;;18.55;12.70;;;8.00;92.60;;;;;;4995234;28;20050;-85
2022/03/13 03:10:47;;;;;;;18.33;12.02;;;8.00;92.60;;;;;;4995174;28;20022;-85
2022/03/13 03:13:15;;;;;;;20.90;13.63;;;8.00;92.60;;;;;;4977712;28;20033;-85
2022/03/13 03:15:41;;;;;;;19.27;13.02;;;8.00;92.70;;;;;;4995327;28;20040;-85
2022/03/13 03:18:11;;;;;;;18.33;11.30;;;8.00;92.60;;;;;;4977526;28;20026;-85
2022/03/13 03:20:39;;;;;;;18.55;12.57;;;8.00;92.60;;;;;;4995093;28;20043;-85
2022/03/13 03:23:05;;;;;;;19.55;12.45;;;7.90;92.60;;;;;;4994990;28;20032;-85
2022/03/13 03:25:31;;;;;;;20.23;12.10;;;7.90;92.60;;;;;;4977459;28;20022;-85
2022/03/13 03:27:58;;;;;;;20.27;12.23;;;8.00;92.70;;;;;;4977347;28;20049;-85
2022/03/13 03:30:26;;;;;;;21.20;12.77;;;8.00;92.70;;;;;;4977219;28;20552;-84
2022/03/13 03:32:53;;;;;;;17.88;12.13;;;8.00;92.70;;;;;;4977255;28;20505;-85
2022/03/13 03:35:21;;;;;;;20.60;12.60;;;8.00;92.70;;;;;;4977317;28;20081;-85
2022/03/13 03:37:48;;;;;;;18.27;12.45;;;8.00;92.80;;;;;;4977244;28;20046;-85
2022/03/13 03:40:14;;;;;;;17.70;12.05;;;7.90;92.70;;;;;;4977078;28;20030;-85
2022/03/13 03:42:42;;;;;;;22.35;12.65;;;8.00;94.20;;;;;;4976963;28;20022;-85
2022/03/13 03:45:08;;;;;;;19.85;12.02;;;8.00;93.80;;;;;;4977051;28;20463;-85
2022/03/13 03:47:34;;;;;;;19.17;12.18;;;8.10;92.90;;;;;;4977008;28;20026;-84
2022/03/13 03:50:00;;;;;;;17.85;11.73;;;7.90;92.70;;;;;;4977025;28;20019;-85
2022/03/13 03:52:26;;;;;;;17.48;12.32;;;7.90;92.70;;;;;;4976964;28;20113;-85
2022/03/13 03:54:52;;;;;;;18.55;12.05;;;7.90;92.70;;;;;;4994368;28;20026;-84
2022/03/13 03:57:19;;;;;;;16.95;11.85;;;7.90;92.70;;;;;;4976902;28;20033;-85
2022/03/13 03:59:44;;;;;;;18.90;12.57;;;7.90;92.70;;;;;;4976777;28;20022;-84
2022/03/13 04:02:10;;;;;;;16.67;11.70;;;7.90;92.70;;;;;;4976784;28;20037;-84
2022/03/13 04:04:36;;;;;;;17.85;12.27;;;7.90;92.70;;;;;;4976804;28;20426;-85
2022/03/13 04:07:02;;;;;;;18.25;12.05;;;7.80;92.70;;;;;;4976648;28;20053;-85
2022/03/13 04:09:28;;;;;;;17.58;12.05;;;7.80;92.60;;;;;;4976506;28;20058;-84
2022/03/13 04:11:53;;;;;;;21.73;12.43;;;7.80;92.60;;;;;;4976586;28;20077;-84
2022/03/13 04:14:20;;;;;;;17.23;12.35;;;7.80;92.60;;;;;;4993782;28;20030;-84
2022/03/13 04:16:46;;;;;;;17.67;12.60;;;7.80;92.60;;;;;;4993936;28;20034;-84
2022/03/13 04:19:12;;;;;;;17.40;12.10;;;7.80;92.60;;;;;;4976171;28;20042;-84
2022/03/13 04:21:42;;;;;;;19.83;12.68;;;7.80;92.60;;;;;;4976556;28;20166;-84
2022/03/13 04:24:09;;;;;;;14.68;11.27;;;7.80;92.60;;;;;;4976292;28;20042;-84
2022/03/13 04:26:34;;;;;;;16.88;11.77;;;7.80;92.60;;;;;;4976354;28;20027;-84
2022/03/13 04:29:00;;;;;;;18.95;12.15;;;7.80;92.70;;;;;;4976415;28;20085;-84
2022/03/13 04:31:26;;;;;;;18.42;12.13;;;7.80;92.70;;;;;;4976364;28;20022;-84
2022/03/13 04:33:52;;;;;;;18.58;12.85;;;7.80;92.70;;;;;;4993699;28;20041;-84
2022/03/13 04:36:21;;;;;;;20.65;12.93;;;7.70;92.70;;;;;;4976286;28;20026;-84
2022/03/13 04:38:47;;;;;;;18.52;12.05;;;7.80;92.70;;;;;;4976514;28;20049;-84
2022/03/13 04:41:13;;;;;;;16.98;11.77;;;7.80;92.70;;;;;;4976127;28;20101;-84
2022/03/13 04:43:39;;;;;;;18.55;12.85;;;7.80;92.90;;;;;;4976076;28;20022;-84
2022/03/13 04:46:05;;;;;;;20.77;12.18;;;7.70;92.70;;;;;;4976087;28;20078;-84
2022/03/13 04:48:32;;;;;;;17.80;11.55;;;7.70;92.70;;;;;;4976184;28;20031;-84
2022/03/13 04:50:59;;;;;;;17.35;11.80;;;7.70;92.70;;;;;;4976138;28;20030;-84
2022/03/13 04:53:25;;;;;;;19.42;12.45;;;7.70;92.70;;;;;;4993503;28;20105;-84
2022/03/13 04:55:50;;;;;;;17.02;11.77;;;7.70;92.70;;;;;;4993550;28;20104;-84
2022/03/13 04:58:18;;;;;;;17.65;11.98;;;7.70;92.70;;;;;;4976160;28;20499;-84
2022/03/13 05:00:47;;;;;;;18.10;12.55;;;7.70;92.70;;;;;;4993543;28;20394;-84
2022/03/13 05:03:13;;;;;;;17.98;11.68;;;7.70;92.70;;;;;;4975940;28;20030;-84
2022/03/13 05:05:40;;;;;;;17.38;11.93;;;7.70;92.70;;;;;;4976155;28;20025;-84
2022/03/13 05:08:15;;;;;;;19.05;12.25;;;7.60;92.70;;;;;;4976014;28;20031;-84
2022/03/13 05:10:44;;;;;;;18.40;12.18;;;7.60;92.70;;;;;;4993721;28;20109;-83
2022/03/13 05:13:14;;;;;;;19.08;11.80;;;7.60;92.70;;;;;;4975827;28;20030;-84
2022/03/13 05:15:44;;;;;;;18.00;11.88;;;7.60;93.10;;;;;;4993411;28;20114;-84
2022/03/13 05:18:12;;;;;;;17.58;12.50;;;7.60;92.70;;;;;;4993361;28;20034;-84
2022/03/13 05:20:38;;;;;;;16.55;11.40;;;7.60;92.70;;;;;;4993738;28;20495;-84
2022/03/13 05:23:05;;;;;;;18.52;12.13;;;7.60;92.80;;;;;;4975875;28;20066;-84
2022/03/13 05:25:35;;;;;;;15.93;11.77;;;7.60;92.80;;;;;;4976190;28;20030;-84
2022/03/13 05:28:03;;;;;;;16.08;11.55;;;7.70;93.20;;;;;;4997175;28;20034;-84
2022/03/13 05:30:28;;;;;;;18.48;11.65;;;7.60;92.90;;;;;;4997396;28;20022;-84
2022/03/13 05:32:55;;;;;;;18.90;12.65;;;7.60;92.70;;;;;;4979621;28;20030;-84
2022/03/13 05:35:21;;;;;;;16.63;11.85;;;7.50;92.70;;;;;;4979652;28;20380;-84
2022/03/13 05:37:47;;;;;;;17.80;11.85;;;7.50;92.70;;;;;;4996956;28;20034;-84
2022/03/13 05:40:15;;;;;;;17.50;11.50;;;7.50;92.70;;;;;;4979469;28;20485;-84
2022/03/13 05:42:46;;;;;;;19.70;12.63;;;7.50;92.70;;;;;;4996914;28;20174;-84
2022/03/13 05:45:14;;;;;;;18.15;12.30;;;7.50;92.70;;;;;;4997057;28;20026;-84
2022/03/13 05:47:44;;;;;;;18.42;12.30;;;7.50;92.70;;;;;;4996809;28;20018;-85
2022/03/13 05:50:09;;;;;;;17.58;11.60;;;7.50;92.70;;;;;;4979321;28;20030;-84
2022/03/13 05:52:35;;;;;;;18.85;11.52;;;7.50;92.70;;;;;;4979095;28;20038;-84
2022/03/13 05:55:01;;;;;;;19.45;12.27;;;7.50;92.70;;;;;;4996560;28;20390;-84
2022/03/13 05:57:27;;;;;;;19.30;12.50;;;7.50;92.70;;;;;;4979126;28;20027;-84
2022/03/13 05:59:52;;;;;;;18.92;12.30;;;7.50;92.70;;;;;;4979090;28;20434;-84
2022/03/13 06:02:22;;;;;;;17.67;11.73;;;7.50;93.00;;;;;;4979018;28;20031;-84
2022/03/13 06:04:48;;;;;;;19.90;12.10;;;7.50;92.70;;;;;;4978879;28;20022;-84
2022/03/13 06:07:14;;;;;;;16.30;11.50;;;7.50;92.70;;;;;;4996496;28;20019;-84
2022/03/13 06:09:39;;;;;;;16.13;11.43;;;7.50;92.70;;;;;;4979005;28;20026;-84
2022/03/13 06:12:05;;;;;;;17.75;12.18;;;7.40;92.70;;;;;;4996611;28;20097;-84
2022/03/13 06:14:31;;;;;;;19.52;11.93;;;7.50;92.70;;;;;;4978977;28;20037;-84
2022/03/13 06:16:57;;;;;;;16.00;11.70;;;7.50;92.70;;;;;;4978879;28;20056;-84
2022/03/13 06:19:22;;;;;;;17.10;11.35;;;7.50;92.70;;;;;;4978402;28;20065;-85
2022/03/13 06:21:48;;;;;;;21.00;12.15;;;7.60;92.70;;;;;;4996255;28;20394;-84
2022/03/13 06:24:17;;;;;;;17.73;11.98;;;7.50;92.60;;;;;;4978468;28;20433;-84
2022/03/13 06:26:43;;;;;;;16.52;11.50;;;7.60;92.60;;;;;;4996095;28;20439;-84
2022/03/13 06:29:08;;;;;;;17.58;11.93;;;7.60;92.60;;;;;;4996103;28;20030;-84
2022/03/13 06:31:34;;;;;;;17.77;11.90;;;7.60;92.50;;;;;;4978507;28;20023;-84
2022/03/13 06:34:00;;;;;;;18.15;12.48;;;7.60;92.50;;;;;;4995929;28;20033;-84
2022/03/13 06:36:26;;;;;;;17.30;11.40;;;7.70;92.50;;;;;;4978295;28;20393;-84
2022/03/13 06:38:52;;;;;;;18.27;11.93;;;7.70;92.50;;;;;;4978302;28;20030;-84
2022/03/13 06:41:19;;;;;;;17.08;11.98;;;7.70;92.40;;;;;;4995637;28;20036;-84
2022/03/13 06:43:45;;;;;;;18.38;11.48;;;7.80;92.40;;;;;;4978073;28;20056;-84
2022/03/13 06:46:11;;;;;;;18.40;11.75;;;7.80;92.30;;;;;;4995680;28;20033;-84
2022/03/13 06:48:37;;;;;;;18.17;11.48;;;7.80;92.30;;;;;;4978155;28;20018;-85
2022/03/13 06:51:02;;;;;;;14.77;11.20;;;7.90;92.30;;;;;;4995732;28;20466;-84
2022/03/13 06:53:29;;;;;;;16.83;11.40;;;8.00;92.30;;;;;;4978266;28;20089;-84
2022/03/13 06:55:55;;;;;;;16.15;11.20;;;8.00;92.20;;;;;;4995393;28;20470;-84
2022/03/13 06:58:20;;;;;;;17.67;12.02;;;8.10;92.20;;;;;;4978051;28;20026;-85
2022/03/13 07:00:48;;;;;;;21.02;11.68;;;8.10;92.10;;;;;;4995639;28;20026;-85
2022/03/13 07:03:13;;;;;;;18.33;12.30;;;8.20;92.00;;;;;;4995628;28;20418;-85
2022/03/13 07:05:40;;;;;;;17.83;11.57;;;8.20;92.00;;;;;;4978087;28;20023;-85
2022/03/13 07:08:07;;;;;;;15.90;11.43;;;8.30;91.90;;;;;;4995573;28;20101;-85
2022/03/13 07:10:33;;;;;;;17.38;11.93;;;8.30;91.90;;;;;;4978094;28;20029;-85
2022/03/13 07:12:59;;;;;;;22.10;12.25;;;8.40;91.80;;;;;;4995998;28;20135;-85
2022/03/13 07:15:26;;;;;;;18.95;12.18;;;8.40;91.80;;;;;;4977969;28;20022;-85
2022/03/13 07:17:53;;;;;;;16.27;11.70;;;8.50;91.70;;;;;;4995385;28;20094;-86
2022/03/13 07:20:19;;;;;;;18.42;12.52;;;8.50;91.70;;;;;;4994386;28;20148;-85
2022/03/13 07:22:46;;;;;;;18.70;12.25;;;8.50;91.70;;;;;;4994421;28;20046;-86
2022/03/13 07:25:13;;;;;;;19.05;12.05;;;8.60;91.70;;;;;;4994431;28;20026;-86
2022/03/13 07:27:39;;;;;;;16.83;11.85;;;8.70;91.70;;;;;;4976460;28;20027;-86
2022/03/13 07:30:07;;;;;;;17.20;12.27;;;8.70;91.70;;;;;;4976752;28;20018;-86
2022/03/13 07:32:32;;;;;;;16.67;11.10;;;8.70;91.60;;;;;;4977397;28;20466;-86
2022/03/13 07:34:58;;;;;;;15.45;10.90;;;8.80;91.60;;;;;;4994364;28;20026;-86
2022/03/13 07:37:24;;;;;;;18.45;11.30;;;8.80;91.50;;;;;;4994056;28;20490;-86
2022/03/13 07:39:49;;;;;;;16.17;11.70;;;8.80;91.50;;;;;;4993998;28;20034;-86
2022/03/13 07:42:16;;;;;;;17.45;11.23;;;8.90;91.40;;;;;;4976358;28;20389;-86
2022/03/13 07:44:42;;;;;;;16.80;11.60;;;8.90;91.40;;;;;;4993815;28;20107;-86
2022/03/13 07:47:08;;;;;;;16.95;11.43;;;9.00;91.40;;;;;;4993720;28;20050;-86
2022/03/13 07:49:34;;;;;;;16.05;11.25;;;9.00;91.40;;;;;;4993575;28;20018;-86
2022/03/13 07:52:00;;;;;;;17.38;11.13;;;9.00;91.30;;;;;;4993865;28;20026;-85
2022/03/13 07:54:26;;;;;;;14.98;11.27;;;9.10;91.30;;;;;;4993663;28;20030;-86
2022/03/13 07:56:51;;;;;;;14.43;10.52;;;9.10;91.30;;;;;;4976250;28;20026;-85
2022/03/13 07:59:17;;;;;;;17.77;11.88;;;9.20;91.30;;;;;;4993493;28;20030;-85
2022/03/13 08:01:43;;;;;;;18.40;10.93;;;9.20;91.30;;;;;;4993451;28;20123;-85
2022/03/13 08:04:08;;;;;;;18.02;11.10;;;9.30;91.30;;;;;;4993401;28;20127;-85
2022/03/13 08:06:36;;;;;;;16.45;11.00;;;9.30;91.30;;;;;;4993601;28;20141;-85
2022/03/13 08:09:03;;;;;;;17.92;12.30;;;9.30;91.30;;;;;;4976723;28;20018;-85
2022/03/13 08:11:29;;;;;;;19.73;12.30;;;9.40;91.30;;;;;;4976197;28;20128;-85
2022/03/13 08:13:55;;;;;;;17.90;12.25;;;9.40;91.20;;;;;;4975995;28;20026;-85
2022/03/13 08:16:21;;;;;;;18.00;11.68;;;9.50;91.20;;;;;;4975784;28;20022;-86
2022/03/13 08:21:16;;;;;;;17.80;11.98;;;9.50;91.20;;;;;;5152095;27;20298;-84
2022/03/13 08:23:42;;;;;;;18.05;12.15;;;9.60;91.20;;;;;;5131624;28;20056;-84
2022/03/13 08:26:08;;;;;;;19.63;11.85;;;9.60;91.20;;;;;;5131658;28;20027;-84
2022/03/13 08:28:34;;;;;;;16.48;11.32;;;9.70;91.30;;;;;;5131672;28;20034;-83
2022/03/13 08:31:00;;;;;;;18.65;11.43;;;9.70;91.30;;;;;;5131288;28;20019;-84
2022/03/13 08:33:26;;;;;;;21.17;13.65;;;9.70;91.30;;;;;;5112817;28;20015;-84
2022/03/13 08:35:52;;;;;;;16.67;11.38;;;9.80;91.50;;;;;;5112619;28;20023;-84
2022/03/13 08:38:17;;;;;;;17.90;11.60;;;9.80;91.30;;;;;;5112688;28;20019;-85
2022/03/13 08:40:43;;;;;;;18.33;11.57;;;9.80;91.20;;;;;;5112657;28;20052;-84
2022/03/13 08:43:09;;;;;;;16.55;11.73;;;9.90;91.20;;;;;;5131043;28;20076;-84
2022/03/13 08:45:34;;;;;;;16.98;11.23;;;9.90;91.20;;;;;;5112793;28;20498;-85
2022/03/13 08:48:00;;;;;;;18.77;11.13;;;9.90;91.20;;;;;;5112844;28;20505;-84
2022/03/13 08:50:26;;;;;;;16.77;11.10;;;9.90;91.10;;;;;;5112798;28;20019;-84
2022/03/13 08:52:51;;;;;;;18.45;12.05;;;9.90;91.10;;;;;;5112793;28;20027;-85
2022/03/13 08:55:18;;;;;;;15.43;11.07;;;10.00;91.20;;;;;;5112678;28;20052;-84
2022/03/13 08:57:45;;;;;;;19.88;12.80;;;10.00;91.20;;;;;;5112559;28;20027;-84
2022/03/13 09:00:14;;;;;;;16.65;11.77;;;10.00;91.20;;;;;;5112443;28;20023;-85
2022/03/13 09:02:40;;;;;;;18.05;11.68;;;10.10;91.20;;;;;;5130916;28;20019;-85
2022/03/13 09:05:06;;;;;;;18.17;11.43;;;10.10;91.20;;;;;;5112450;28;20072;-84
2022/03/13 09:07:32;;;;;;;15.85;11.40;;;10.10;91.20;;;;;;5112891;28;20038;-84
2022/03/13 09:09:58;;;;;;;16.45;11.65;;;10.20;91.20;;;;;;5131110;28;20110;-84
2022/03/13 09:12:24;;;;;;;19.33;11.85;;;10.20;91.20;;;;;;5130741;28;20020;-84
2022/03/13 09:14:50;;;;;;;16.90;10.90;;;10.30;91.30;;;;;;5112484;28;20043;-85
2022/03/13 09:17:17;;;;;;;15.77;10.80;;;10.30;91.20;;;;;;5131207;28;20454;-84
2022/03/13 09:19:43;;;;;;;18.27;11.52;;;10.30;91.10;;;;;;5115059;28;20046;-85
2022/03/13 09:22:09;;;;;;;16.92;11.10;;;10.30;91.10;;;;;;5109932;28;20024;-84
2022/03/13 09:24:35;;;;;;;16.98;11.80;;;10.40;91.10;;;;;;5091426;28;20520;-85
2022/03/13 09:27:01;;;;;;;20.02;11.35;;;10.40;91.10;;;;;;5109631;28;20024;-84
2022/03/13 09:29:26;;;;;;;16.60;11.20;;;10.40;91.00;;;;;;5091326;28;20114;-85
2022/03/13 09:31:52;;;;;;;19.27;11.68;;;10.40;91.00;;;;;;5099777;28;20028;-85
2022/03/13 09:34:18;;;;;;;18.65;11.05;;;10.50;91.00;;;;;;5095984;28;20028;-84
2022/03/13 09:36:44;;;;;;;23.15;12.32;;;10.50;91.00;;;;;;5077756;28;20051;-85
2022/03/13 09:39:10;;;;;;;17.48;11.57;;;10.50;90.90;;;;;;5095729;28;20055;-85
2022/03/13 09:41:39;;;;;;;17.48;11.07;;;10.60;90.90;;;;;;5077480;28;20035;-85
2022/03/13 09:44:07;;;;;;;16.90;10.82;;;10.60;90.80;;;;;;5077596;28;20479;-85
2022/03/13 09:46:38;;;;;;;18.52;11.32;;;10.60;90.90;;;;;;5077472;28;20017;-85
2022/03/13 09:49:04;;;;;;;16.23;11.00;;;10.60;90.80;;;;;;5095702;28;20471;-84
2022/03/13 09:51:30;;;;;;;17.95;11.00;;;10.70;90.80;;;;;;5077300;28;20089;-85
2022/03/13 09:53:57;;;;;;;16.05;11.18;;;10.70;90.70;;;;;;5077328;28;20028;-85
2022/03/13 09:56:23;;;;;;;16.35;11.15;;;10.70;90.70;;;;;;5077430;28;20024;-84
2022/03/13 09:58:48;;;;;;;17.17;11.57;;;10.80;90.80;;;;;;5095274;28;20020;-85
2022/03/13 10:01:14;;;;;;;18.05;11.20;;;10.80;90.70;;;;;;5077173;28;20081;-85
2022/03/13 10:03:40;;;;;;;16.20;11.02;;;10.80;90.60;;;;;;5078133;28;20024;-85
2022/03/13 10:06:06;;;;;;;18.88;11.90;;;10.90;90.70;;;;;;5095286;28;20384;-85
2022/03/13 10:08:33;;;;;;;18.33;11.65;;;10.90;91.00;;;;;;5077008;28;20031;-85
2022/03/13 10:11:02;;;;;;;19.58;11.77;;;10.90;91.00;;;;;;5077071;28;20051;-84
2022/03/13 10:13:41;;;;;;;16.98;11.20;;;11.00;90.60;;;;;;5076989;28;20027;-85
2022/03/13 10:16:08;;;;;;;21.67;12.52;;;11.00;90.60;;;;;;5076974;28;20123;-85
2022/03/13 10:18:35;;;;;;;16.98;10.95;;;11.00;90.70;;;;;;5076781;28;20028;-84
2022/03/13 10:21:17;;;;;;;16.83;11.65;;;11.00;90.80;;;;;;5076629;28;20090;-84
2022/03/13 10:23:43;;;;;;;19.35;12.10;;;11.00;90.90;;;;;;5094927;28;20379;-84
2022/03/13 10:26:09;;;;;;;19.95;12.25;;;11.00;91.00;;;;;;5076692;28;20020;-85
2022/03/13 10:28:37;;;;;;;19.85;12.68;;;11.00;91.10;;;;;;5094752;28;20023;-84
2022/03/13 10:31:03;;;;;;;20.85;11.95;;;11.00;91.10;;;;;;5094581;28;20024;-85
2022/03/13 10:33:53;;;;;;;18.02;11.80;;;11.00;91.20;;;;;;5076399;28;20020;-84
2022/03/13 10:36:37;;;;;;;18.88;11.88;;;11.00;91.20;;;;;;5094621;28;20379;-84
2022/03/13 10:39:10;;;;;;;20.38;12.23;;;11.00;91.30;;;;;;5094361;28;20024;-84
2022/03/13 10:41:44;;;;;;;19.35;11.98;;;11.10;91.40;;;;;;5076342;28;20036;-84
2022/03/13 10:44:14;;;;;;;;;;;11.10;91.40;;;;;;5075751;28;20023;-84
2022/03/13 10:46:40;;;;;;;20.80;12.25;;;11.10;91.30;;;;;;5076452;28;20263;-85
2022/03/13 10:49:07;;;;;;;18.40;11.80;;;11.10;91.40;;;;;;5076124;28;20034;-85
2022/03/13 10:51:35;;;;;;;20.58;12.50;;;11.10;91.40;;;;;;5075949;28;20150;-84
2022/03/13 10:54:03;;;;;;;21.83;13.27;;;11.10;91.40;;;;;;5075967;28;20046;-84
2022/03/13 10:56:29;;;;;;;20.25;12.88;;;11.10;91.70;;;;;;5075979;28;20028;-85
2022/03/13 10:58:56;;;;;;;20.30;12.73;;;11.20;91.40;;;;;;5093922;28;20031;-84
2022/03/13 11:01:23;;;;;;;21.98;13.15;;;11.20;91.40;;;;;;5093973;28;20107;-85
2022/03/13 11:03:50;;;;;;;18.88;12.85;;;11.20;91.30;;;;;;5093937;28;20024;-85
2022/03/13 11:06:16;;;;;;;24.23;13.23;;;11.30;91.30;;;;;;5093855;28;20498;-85
2022/03/13 11:08:42;;;;;;;20.30;12.98;;;11.30;91.20;;;;;;5093842;28;20028;-84
2022/03/13 11:11:16;;;;;;;20.33;13.00;;;11.30;91.10;;;;;;5075994;28;20039;-85
2022/03/13 11:13:42;;;;;;;;;;;11.40;91.10;;;;;;5094350;28;20410;-84
2022/03/13 11:16:11;;;;;;;19.90;12.52;;;11.40;90.90;;;;;;5075581;28;20408;-84
2022/03/13 11:18:38;;;;;;;22.05;13.75;;;11.40;90.90;;;;;;5093936;28;20383;-84
2022/03/13 11:21:06;;;;;;;21.67;13.70;;;11.50;90.90;;;;;;5075389;28;20511;-85
2022/03/13 11:23:36;;;;;;;22.95;14.68;;;11.50;90.80;;;;;;5075670;28;20032;-85
2022/03/13 11:26:04;;;;;;;21.90;14.05;;;11.50;90.80;;;;;;5093566;28;20024;-84
2022/03/13 11:28:31;;;;;;;22.65;13.90;;;11.50;90.80;;;;;;5093475;28;20157;-85
2022/03/13 11:30:58;;;;;;;23.42;14.45;;;11.50;90.80;;;;;;5093532;28;20024;-84
2022/03/13 11:33:35;;;;;;;19.73;13.45;;;11.50;90.80;;;;;;5093527;28;20027;-84
2022/03/13 11:36:27;;;;;;;21.05;13.48;;;11.50;90.80;;;;;;5093481;28;20439;-84
2022/03/13 11:38:56;;;;;;;22.00;13.68;;;11.60;90.70;;;;;;5093286;28;20024;-85
2022/03/13 11:41:46;;;;;;;25.17;14.18;;;11.60;90.70;;;;;;5093257;28;20414;-84
2022/03/13 11:44:17;;;;;;;23.63;14.60;;;11.60;90.60;;;;;;5075219;28;20024;-84
2022/03/13 11:46:45;;;;;;;21.67;13.60;;;11.60;90.60;;;;;;5075034;28;20016;-85
2022/03/13 11:49:33;;;;;;;23.02;13.65;;;11.70;90.60;;;;;;5093334;28;20237;-84
2022/03/13 11:52:15;;;;;;;22.90;14.25;;;11.70;90.60;;;;;;5075224;28;20028;-84
2022/03/13 11:54:48;;;;;;;23.73;14.98;;;11.70;90.50;;;;;;5093226;28;20514;-84
2022/03/13 11:57:18;;;;;;;23.10;14.50;;;11.70;90.40;;;;;;5074985;28;20097;-83
2022/03/13 11:59:48;;;;;;;21.73;13.82;;;11.80;90.50;;;;;;5075192;28;20127;-86
2022/03/13 12:02:40;;;;;;;22.58;14.63;;;11.80;90.50;;;;;;5075838;28;20107;-85
2022/03/13 12:05:24;;;;;;;21.38;13.90;;;11.80;90.50;;;;;;5075052;28;20076;-85
2022/03/13 12:07:57;;;;;;;23.80;14.38;;;11.80;90.40;;;;;;5075070;28;20020;-85
2022/03/13 12:10:43;;;;;;;21.98;13.75;;;11.80;90.40;;;;;;5074933;28;20060;-85
2022/03/13 12:13:11;;;;;;;21.90;14.13;;;11.90;90.70;;;;;;5074908;28;20073;-85
2022/03/13 12:15:39;;;;;;;21.15;14.05;;;11.90;90.40;;;;;;5074978;28;20024;-85
2022/03/13 12:18:25;;;;;;;22.30;14.30;;;11.90;90.40;;;;;;5092955;28;20099;-85
2022/03/13 12:20:52;;;;;;;24.75;15.13;;;11.90;90.30;;;;;;5074895;28;20083;-85
2022/03/13 12:23:34;;;;;;;27.92;15.00;;;11.90;90.20;;;;;;5092943;28;20514;-85
2022/03/13 12:26:19;;;;;;;25.58;15.15;;;11.90;90.20;;;;;;5074793;28;20024;-85
2022/03/13 12:28:46;;;;;;;22.30;14.68;;;12.00;90.20;;;;;;5074680;28;20470;-85
2022/03/13 12:31:12;;;;;;;27.02;15.55;;;12.00;90.20;;;;;;5074694;28;20047;-85
2022/03/13 12:33:44;;;;;;;23.50;15.25;;;12.00;90.20;;;;;;5075108;28;20027;-85
2022/03/13 12:36:10;;;;;;;24.67;15.30;;;12.00;90.10;;;;;;5075234;28;20024;-85
2022/03/13 12:38:38;;;;;;;22.70;15.07;;;12.00;90.00;;;;;;5074945;28;20059;-84
2022/03/13 12:41:08;;;;;;;22.30;14.65;;;12.10;90.00;;;;;;5093283;28;20379;-84